createdAt,value
2018-08-09T00:01:47.930Z,20.10
2018-08-09T00:04:17.385Z,20.10
2018-08-09T00:06:46.667Z,20.20
2018-08-09T00:09:15.850Z,20.30
2018-08-09T00:11:45.198Z,20.40
2018-08-09T00:14:14.594Z,20.50
2018-08-09T00:16:43.685Z,20.50
2018-08-09T00:19:12.620Z,20.50
2018-08-09T00:21:41.711Z,20.50
2018-08-09T00:24:10.929Z,20.50
2018-08-09T00:26:40.288Z,20.50
2018-08-09T00:29:09.378Z,20.50
2018-08-09T00:31:38.381Z,20.50
2018-08-09T00:34:07.472Z,20.50
2018-08-09T00:36:36.667Z,20.50
2018-08-09T00:39:08.109Z,20.50
2018-08-09T00:41:37.242Z,20.50
2018-08-09T00:44:06.412Z,20.60
2018-08-09T00:46:35.528Z,20.60
2018-08-09T00:49:04.625Z,20.60
2018-08-09T00:51:33.591Z,20.60
2018-08-09T00:54:02.514Z,20.60
2018-08-09T00:56:31.572Z,20.60
2018-08-09T00:59:00.965Z,20.60
2018-08-09T01:01:30.370Z,20.60
2018-08-09T01:03:59.567Z,20.60
2018-08-09T01:06:28.771Z,20.60
2018-08-09T01:09:02.956Z,20.60
2018-08-09T01:11:32.172Z,20.70
2018-08-09T01:14:01.153Z,20.60
2018-08-09T01:16:30.366Z,20.60
2018-08-09T01:18:59.673Z,20.60
2018-08-09T01:21:29.029Z,20.60
2018-08-09T01:23:58.038Z,20.60
2018-08-09T01:26:27.470Z,20.50
2018-08-09T01:28:56.464Z,20.50
2018-08-09T01:31:31.904Z,20.40
2018-08-09T01:34:01.732Z,20.40
2018-08-09T01:36:31.254Z,20.30
2018-08-09T01:39:00.506Z,20.30
2018-08-09T01:41:29.513Z,20.30
2018-08-09T01:44:01.808Z,20.30
2018-08-09T01:46:31.377Z,20.30
2018-08-09T01:49:00.833Z,20.30
2018-08-09T01:51:30.566Z,20.20
2018-08-09T01:53:59.670Z,20.10
2018-08-09T01:56:29.117Z,20.10
2018-08-09T01:58:58.149Z,20.00
2018-08-09T02:01:27.292Z,20.00
2018-08-09T02:03:56.261Z,19.90
2018-08-09T02:06:25.437Z,19.80
2018-08-09T02:08:54.763Z,19.80
2018-08-09T02:11:24.061Z,19.70
2018-08-09T02:13:53.236Z,19.70
2018-08-09T02:16:22.456Z,19.70
2018-08-09T02:18:51.523Z,19.60
2018-08-09T02:21:20.778Z,19.60
2018-08-09T02:23:49.944Z,19.70
2018-08-09T02:26:19.003Z,19.70
2018-08-09T02:28:48.027Z,19.70
2018-08-09T02:31:17.094Z,19.70
2018-08-09T02:33:46.168Z,19.80
2018-08-09T02:36:16.518Z,19.90
2018-08-09T02:38:45.498Z,19.90
2018-08-09T02:41:14.648Z,19.90
2018-08-09T02:43:44.009Z,19.90
2018-08-09T02:46:13.013Z,19.90
2018-08-09T02:48:41.984Z,19.90
2018-08-09T02:51:10.979Z,20.00
2018-08-09T02:53:40.532Z,20.00
2018-08-09T02:56:09.485Z,20.00
2018-08-09T02:58:38.649Z,20.10
2018-08-09T03:01:08.513Z,20.10
2018-08-09T03:03:37.701Z,20.10
2018-08-09T03:06:07.174Z,20.00
2018-08-09T03:08:36.690Z,19.90
2018-08-09T03:11:06.043Z,19.90
2018-08-09T03:13:35.276Z,19.90
2018-08-09T03:16:04.785Z,19.80
2018-08-09T03:18:33.908Z,19.70
2018-08-09T03:21:02.878Z,19.60
2018-08-09T03:23:32.106Z,19.60
2018-08-09T03:26:01.399Z,19.60
2018-08-09T03:28:30.848Z,19.60
2018-08-09T03:31:00.229Z,19.70
2018-08-09T03:33:29.564Z,19.70
2018-08-09T03:35:59.069Z,19.70
2018-08-09T03:38:28.894Z,19.60
2018-08-09T03:40:58.035Z,19.70
2018-08-09T03:43:27.014Z,19.70
2018-08-09T03:45:56.090Z,19.70
2018-08-09T03:48:25.127Z,19.70
2018-08-09T03:50:54.530Z,19.70
2018-08-09T03:53:23.530Z,19.70
2018-08-09T03:55:52.533Z,19.80
2018-08-09T03:58:21.876Z,19.90
2018-08-09T04:00:51.228Z,20.00
2018-08-09T04:03:21.757Z,20.00
2018-08-09T04:05:50.977Z,20.00
2018-08-09T04:08:19.997Z,20.00
2018-08-09T04:10:49.306Z,20.00
2018-08-09T04:13:18.593Z,20.00
2018-08-09T04:15:48.592Z,20.00
2018-08-09T04:18:17.635Z,20.10
2018-08-09T04:20:46.881Z,20.10
2018-08-09T04:23:16.468Z,20.20
2018-08-09T04:25:46.385Z,20.30
2018-08-09T04:28:15.865Z,20.40
2018-08-09T04:30:45.317Z,20.40
2018-08-09T04:33:14.717Z,20.40
2018-08-09T04:35:44.158Z,20.30
2018-08-09T04:38:13.234Z,20.30
2018-08-09T04:40:42.160Z,20.30
2018-08-09T04:43:11.297Z,20.20
2018-08-09T04:45:40.222Z,20.20
2018-08-09T04:48:09.472Z,20.20
2018-08-09T04:50:38.845Z,20.40
2018-08-09T04:53:08.292Z,20.40
2018-08-09T04:55:37.368Z,20.40
2018-08-09T04:58:06.905Z,20.50
2018-08-09T05:00:36.099Z,20.60
2018-08-09T05:03:05.178Z,20.70
2018-08-09T05:05:34.313Z,20.80
2018-08-09T05:08:03.341Z,20.80
2018-08-09T05:10:32.433Z,20.90
2018-08-09T05:13:01.606Z,21.00
2018-08-09T05:15:31.187Z,21.10
2018-08-09T05:18:00.242Z,21.20
2018-08-09T05:20:29.332Z,21.30
2018-08-09T05:22:58.673Z,21.30
2018-08-09T05:25:27.667Z,21.30
2018-08-09T05:27:56.710Z,21.40
2018-08-09T05:30:26.020Z,21.40
2018-08-09T05:32:55.297Z,21.50
2018-08-09T05:35:24.599Z,21.60
2018-08-09T05:37:53.684Z,21.60
2018-08-09T05:40:22.810Z,21.70
2018-08-09T05:42:51.762Z,21.70
2018-08-09T05:45:21.177Z,21.70
2018-08-09T05:47:50.880Z,21.70
2018-08-09T05:50:20.311Z,21.70
2018-08-09T05:52:49.350Z,21.70
2018-08-09T05:55:18.379Z,21.70
2018-08-09T05:57:47.394Z,21.80
2018-08-09T06:00:16.635Z,21.90
2018-08-09T06:02:45.664Z,22.00
2018-08-09T06:05:14.642Z,22.10
2018-08-09T06:07:44.153Z,22.20
2018-08-09T06:10:13.429Z,22.30
2018-08-09T06:12:42.663Z,22.50
2018-08-09T06:15:11.719Z,22.70
2018-08-09T06:17:40.771Z,23.00
2018-08-09T06:20:09.988Z,23.50
2018-08-09T06:22:39.221Z,24.30
2018-08-09T06:25:08.562Z,25.20
2018-08-09T06:27:37.571Z,26.10
2018-08-09T06:30:09.027Z,26.70
2018-08-09T06:32:38.394Z,27.10
2018-08-09T06:35:08.645Z,27.20
2018-08-09T06:37:38.219Z,27.30
2018-08-09T06:40:11.920Z,27.20
2018-08-09T06:42:42.200Z,26.90
2018-08-09T06:45:11.413Z,26.70
2018-08-09T06:47:40.513Z,26.60
2018-08-09T06:50:10.780Z,26.50
2018-08-09T06:52:40.204Z,26.40
2018-08-09T06:55:09.531Z,26.70
2018-08-09T06:57:38.740Z,27.20
2018-08-09T07:00:12.624Z,27.80
2018-08-09T07:02:42.239Z,28.30
2018-08-09T07:05:11.610Z,28.60
2018-08-09T07:07:41.679Z,29.40
2018-08-09T07:10:11.123Z,30.30
2018-08-09T07:12:40.905Z,30.80
2018-08-09T07:15:12.239Z,31.20
2018-08-09T07:17:42.229Z,31.80
2018-08-09T07:20:11.519Z,32.20
2018-08-09T07:22:41.555Z,32.60
2018-08-09T07:25:10.833Z,33.00
2018-08-09T07:27:40.096Z,33.40
2018-08-09T07:30:11.010Z,33.50
2018-08-09T07:32:40.446Z,33.40
2018-08-09T07:35:10.560Z,32.80
2018-08-09T07:37:39.713Z,31.90
2018-08-09T07:40:10.965Z,31.00
2018-08-09T07:42:40.690Z,30.30
2018-08-09T07:45:12.023Z,29.70
2018-08-09T07:47:41.426Z,29.50
2018-08-09T07:50:11.333Z,29.50
2018-08-09T07:52:40.763Z,29.60
2018-08-09T07:55:11.053Z,29.60
2018-08-09T07:57:41.740Z,29.50
2018-08-09T08:00:12.505Z,29.30
2018-08-09T08:02:41.954Z,29.10
2018-08-09T08:05:10.987Z,28.90
2018-08-09T08:07:40.316Z,28.90
2018-08-09T08:10:10.481Z,28.80
2018-08-09T08:12:40.338Z,28.80
2018-08-09T08:15:10.412Z,28.90
2018-08-09T08:17:39.560Z,29.00
2018-08-09T08:20:09.246Z,29.10
2018-08-09T08:22:38.737Z,29.50
2018-08-09T08:25:08.187Z,30.30
2018-08-09T08:27:37.226Z,30.30
2018-08-09T08:30:09.783Z,30.00
2018-08-09T08:32:39.472Z,29.50
2018-08-09T08:35:08.726Z,28.90
2018-08-09T08:37:38.000Z,28.60
2018-08-09T08:40:08.149Z,28.40
2018-08-09T08:42:38.117Z,28.20
2018-08-09T08:45:10.977Z,28.10
2018-08-09T08:47:40.130Z,28.00
2018-08-09T08:50:09.871Z,28.10
2018-08-09T08:52:39.670Z,28.10
2018-08-09T08:55:10.891Z,28.20
2018-08-09T08:57:40.070Z,28.30
2018-08-09T09:00:10.665Z,28.50
2018-08-09T09:02:40.366Z,28.80
2018-08-09T09:05:11.647Z,29.30
2018-08-09T09:07:41.050Z,29.80
2018-08-09T09:10:11.825Z,30.20
2018-08-09T09:12:41.112Z,30.60
2018-08-09T09:15:12.820Z,30.90
2018-08-09T09:17:42.890Z,31.00
2018-08-09T09:20:14.290Z,31.20
2018-08-09T09:22:43.925Z,31.20
2018-08-09T09:25:13.250Z,31.50
2018-08-09T09:27:42.521Z,31.70
2018-08-09T09:30:15.922Z,32.10
2018-08-09T09:32:45.360Z,32.30
2018-08-09T09:35:14.433Z,32.80
2018-08-09T09:37:43.759Z,33.40
2018-08-09T09:40:12.894Z,33.70
2018-08-09T09:42:42.211Z,33.50
2018-08-09T09:45:11.277Z,33.40
2018-08-09T09:47:41.308Z,33.40
2018-08-09T09:50:11.855Z,33.50
2018-08-09T09:52:41.056Z,33.50
2018-08-09T09:55:10.361Z,33.60
2018-08-09T09:57:39.548Z,34.00
2018-08-09T10:00:14.668Z,34.60
2018-08-09T10:02:44.290Z,35.10
2018-08-09T10:05:13.460Z,35.90
2018-08-09T10:07:44.092Z,36.60
2018-08-09T10:10:13.402Z,37.40
2018-08-09T10:12:43.029Z,37.70
2018-08-09T10:15:12.412Z,38.30
2018-08-09T10:17:41.744Z,39.20
2018-08-09T10:20:10.906Z,40.10
2018-08-09T10:22:40.131Z,40.80
2018-08-09T10:25:09.197Z,41.40
2018-08-09T10:27:38.736Z,42.00
2018-08-09T10:30:08.459Z,42.20
2018-08-09T10:32:37.674Z,42.50
2018-08-09T10:35:07.750Z,42.40
2018-08-09T10:37:36.790Z,41.90
2018-08-09T10:40:06.269Z,41.60
2018-08-09T10:42:35.451Z,41.60
2018-08-09T10:45:04.889Z,41.50
2018-08-09T10:47:34.138Z,40.60
2018-08-09T10:50:03.284Z,40.20
2018-08-09T10:52:32.303Z,39.50
2018-08-09T10:55:01.329Z,38.10
2018-08-09T10:57:30.383Z,37.10
2018-08-09T10:59:59.666Z,36.30
2018-08-09T11:02:28.918Z,35.70
2018-08-09T11:04:58.103Z,35.00
2018-08-09T11:07:27.075Z,34.30
2018-08-09T11:09:56.401Z,34.00
2018-08-09T11:12:25.462Z,33.80
2018-08-09T11:14:54.518Z,33.60
2018-08-09T11:17:23.668Z,33.30
2018-08-09T11:19:52.745Z,33.10
2018-08-09T11:22:21.752Z,33.00
2018-08-09T11:24:50.813Z,32.90
2018-08-09T11:27:20.361Z,32.90
2018-08-09T11:29:49.426Z,32.90
2018-08-09T11:32:18.681Z,33.10
2018-08-09T11:34:47.837Z,33.30
2018-08-09T11:37:17.005Z,33.30
2018-08-09T11:39:46.178Z,33.20
2018-08-09T11:42:15.573Z,32.90
2018-08-09T11:44:45.096Z,32.80
2018-08-09T11:47:14.118Z,32.80
2018-08-09T11:49:43.357Z,33.10
2018-08-09T11:52:12.867Z,33.30
2018-08-09T11:54:42.152Z,33.40
2018-08-09T11:57:11.596Z,33.40
2018-08-09T11:59:40.847Z,33.50
2018-08-09T12:02:10.031Z,33.50
2018-08-09T12:04:39.332Z,33.40
2018-08-09T12:07:08.913Z,33.10
2018-08-09T12:09:38.110Z,32.90
2018-08-09T12:12:07.488Z,32.90
2018-08-09T12:14:36.679Z,32.90
2018-08-09T12:17:05.905Z,32.90
2018-08-09T12:19:35.449Z,32.90
2018-08-09T12:22:04.990Z,32.90
2018-08-09T12:24:34.421Z,32.80
2018-08-09T12:27:03.820Z,32.80
2018-08-09T12:29:33.052Z,32.60
2018-08-09T12:32:02.216Z,32.40
2018-08-09T12:34:31.474Z,32.30
2018-08-09T12:37:00.496Z,32.10
2018-08-09T12:39:29.616Z,32.00
2018-08-09T12:41:58.852Z,31.90
2018-08-09T12:44:28.188Z,31.70
2018-08-09T12:46:57.373Z,31.60
2018-08-09T12:49:26.609Z,31.60
2018-08-09T12:51:55.729Z,31.70
2018-08-09T12:54:24.782Z,31.70
2018-08-09T12:56:53.874Z,31.80
2018-08-09T12:59:22.833Z,31.80
2018-08-09T13:01:52.034Z,31.60
2018-08-09T13:04:21.266Z,31.50
2018-08-09T13:06:50.459Z,31.40
2018-08-09T13:09:19.666Z,31.20
2018-08-09T13:11:48.616Z,31.00
2018-08-09T13:14:18.185Z,30.90
2018-08-09T13:16:47.420Z,30.90
2018-08-09T13:19:16.624Z,30.60
2018-08-09T13:21:45.849Z,30.50
2018-08-09T13:24:15.092Z,30.30
2018-08-09T13:26:44.159Z,30.10
2018-08-09T13:29:13.615Z,30.00
2018-08-09T13:31:43.031Z,29.80
2018-08-09T13:34:12.516Z,29.60
2018-08-09T13:36:41.622Z,29.50
2018-08-09T13:39:13.083Z,29.20
2018-08-09T13:41:43.545Z,28.80
2018-08-09T13:44:13.128Z,28.50
2018-08-09T13:46:42.333Z,28.30
2018-08-09T13:49:11.374Z,27.90
2018-08-09T13:51:40.664Z,27.50
2018-08-09T13:54:10.025Z,27.20
2018-08-09T13:56:39.203Z,26.90
2018-08-09T13:59:08.663Z,26.80
2018-08-09T14:01:37.795Z,26.70
2018-08-09T14:04:07.030Z,26.60
2018-08-09T14:06:36.221Z,26.60
2018-08-09T14:09:09.636Z,26.50
2018-08-09T14:11:38.983Z,26.50
2018-08-09T14:14:08.266Z,26.70
2018-08-09T14:16:37.668Z,26.70
2018-08-09T14:19:06.861Z,26.70
2018-08-09T14:21:36.247Z,26.70
2018-08-09T14:24:05.713Z,26.70
2018-08-09T14:26:34.715Z,26.80
2018-08-09T14:29:04.170Z,26.80
2018-08-09T14:31:33.375Z,26.90
2018-08-09T14:34:02.787Z,27.10
2018-08-09T14:36:32.450Z,27.10
2018-08-09T14:39:01.713Z,27.20
2018-08-09T14:41:33.162Z,27.20
2018-08-09T14:44:02.519Z,27.30
2018-08-09T14:46:32.369Z,27.20
2018-08-09T14:49:01.640Z,27.20
2018-08-09T14:51:31.344Z,27.30
2018-08-09T14:54:00.802Z,27.40
2018-08-09T14:56:37.583Z,27.60
2018-08-09T14:59:07.408Z,27.50
2018-08-09T15:01:36.542Z,27.30
2018-08-09T15:04:06.059Z,27.30
2018-08-09T15:06:35.704Z,27.10
2018-08-09T15:09:07.807Z,27.00
2018-08-09T15:11:37.588Z,26.70
2018-08-09T15:14:07.788Z,26.60
2018-08-09T15:16:37.459Z,26.40
2018-08-09T15:19:07.174Z,26.40
2018-08-09T15:21:36.532Z,26.20
2018-08-09T15:24:05.892Z,26.10
2018-08-09T15:26:35.161Z,26.00
2018-08-09T15:29:04.920Z,26.00
2018-08-09T15:31:34.602Z,25.90
2018-08-09T15:34:04.204Z,25.90
2018-08-09T15:36:33.719Z,25.80
2018-08-09T15:39:03.252Z,25.80
2018-08-09T15:41:32.854Z,25.80
2018-08-09T15:44:02.212Z,25.80
2018-08-09T15:46:31.684Z,25.80
2018-08-09T15:49:01.406Z,25.80
2018-08-09T15:51:32.149Z,25.90
2018-08-09T15:54:01.647Z,25.90
2018-08-09T15:56:31.499Z,25.90
2018-08-09T15:59:00.711Z,25.80
2018-08-09T16:01:30.523Z,25.70
2018-08-09T16:04:00.102Z,25.60
2018-08-09T16:06:29.933Z,25.50
2018-08-09T16:08:59.325Z,25.40
2018-08-09T16:11:29.117Z,25.30
2018-08-09T16:13:58.559Z,25.30
2018-08-09T16:16:28.199Z,25.20
2018-08-09T16:18:57.646Z,25.20
2018-08-09T16:21:27.195Z,25.20
2018-08-09T16:23:56.285Z,25.20
2018-08-09T16:26:25.606Z,25.30
2018-08-09T16:28:55.173Z,25.30
2018-08-09T16:31:25.469Z,25.40
2018-08-09T16:33:55.169Z,25.40
2018-08-09T16:36:24.636Z,25.40
2018-08-09T16:38:54.667Z,25.50
2018-08-09T16:41:25.102Z,25.50
2018-08-09T16:43:54.536Z,25.60
2018-08-09T16:46:24.077Z,25.70
2018-08-09T16:48:53.596Z,25.80
2018-08-09T16:51:23.065Z,25.90
2018-08-09T16:53:52.632Z,26.00
2018-08-09T16:56:22.045Z,26.00
2018-08-09T16:58:51.406Z,26.00
2018-08-09T17:01:20.807Z,26.00
2018-08-09T17:03:56.355Z,26.00
2018-08-09T17:06:25.681Z,26.00
2018-08-09T17:08:56.311Z,26.00
2018-08-09T17:11:25.969Z,25.90
2018-08-09T17:13:55.204Z,25.80
2018-08-09T17:16:24.523Z,25.70
2018-08-09T17:18:53.791Z,25.70
2018-08-09T17:21:23.185Z,25.70
2018-08-09T17:23:52.750Z,25.60
2018-08-09T17:26:22.138Z,25.60
2018-08-09T17:28:51.509Z,25.50
2018-08-09T17:31:20.936Z,25.50
2018-08-09T17:33:50.270Z,25.50
2018-08-09T17:36:19.451Z,25.50
2018-08-09T17:38:50.255Z,25.50
2018-08-09T17:41:19.505Z,25.50
2018-08-09T17:56:49.220Z,25.50
2018-08-09T17:59:18.985Z,25.50
2018-08-09T18:01:48.648Z,25.10
2018-08-09T18:04:18.423Z,24.80
2018-08-09T18:06:47.843Z,24.40
2018-08-09T18:09:17.919Z,24.10
2018-08-09T18:11:47.111Z,23.70
2018-08-09T18:14:16.745Z,23.40
2018-08-09T18:16:45.824Z,23.20
2018-08-09T18:19:15.052Z,23.10
2018-08-09T18:21:44.218Z,23.10
2018-08-09T18:24:13.390Z,23.00
2018-08-09T18:26:42.676Z,22.90
2018-08-09T18:29:11.932Z,22.80
2018-08-09T18:31:41.102Z,22.90
2018-08-09T18:34:10.304Z,22.90
2018-08-09T18:36:39.376Z,22.80
2018-08-09T18:39:10.541Z,22.70
2018-08-09T18:41:39.933Z,22.70
2018-08-09T18:44:09.342Z,22.70
2018-08-09T18:46:38.438Z,22.80
2018-08-09T18:49:08.177Z,22.70
2018-08-09T18:51:37.386Z,22.70
2018-08-09T18:54:06.665Z,22.70
2018-08-09T18:56:35.620Z,22.60
2018-08-09T18:59:04.732Z,22.60
2018-08-09T19:01:34.050Z,22.60
2018-08-09T19:04:03.130Z,22.60
2018-08-09T19:06:32.330Z,22.50
2018-08-09T19:09:01.658Z,22.40
2018-08-09T19:11:30.814Z,22.40
2018-08-09T19:14:00.022Z,22.30
2018-08-09T19:16:29.849Z,22.30
2018-08-09T19:18:58.973Z,22.30
2018-08-09T19:21:28.458Z,22.20
2018-08-09T19:23:57.761Z,22.10
2018-08-09T19:26:26.998Z,22.00
2018-08-09T19:28:56.051Z,22.00
2018-08-09T19:31:25.102Z,21.90
2018-08-09T19:33:54.723Z,21.80
2018-08-09T19:36:23.837Z,21.70
2018-08-09T19:38:53.087Z,21.70
2018-08-09T19:41:22.912Z,21.60
2018-08-09T19:43:52.412Z,21.60
2018-08-09T19:46:22.042Z,21.50
2018-08-09T19:48:51.134Z,21.40
2018-08-09T19:51:20.420Z,21.40
2018-08-09T19:53:49.578Z,21.40
2018-08-09T19:56:18.781Z,21.30
2018-08-09T19:58:48.422Z,21.30
2018-08-09T20:01:17.581Z,21.20
2018-08-09T20:03:46.799Z,21.20
2018-08-09T20:06:15.780Z,21.20
2018-08-09T20:08:45.004Z,21.10
2018-08-09T20:11:14.192Z,21.10
2018-08-09T20:13:43.286Z,21.10
2018-08-09T20:16:12.488Z,21.10
2018-08-09T20:18:41.709Z,21.10
2018-08-09T20:21:10.905Z,21.10
2018-08-09T20:23:40.093Z,21.10
2018-08-09T20:26:09.393Z,21.10
2018-08-09T20:28:38.922Z,21.10
2018-08-09T20:31:08.761Z,21.00
2018-08-09T20:33:37.983Z,21.00
2018-08-09T20:36:07.280Z,21.00
2018-08-09T20:38:36.627Z,20.90
2018-08-09T20:41:06.066Z,20.90
2018-08-09T20:43:35.315Z,20.90
2018-08-09T20:46:04.855Z,20.90
2018-08-09T20:48:34.503Z,20.80
2018-08-09T20:51:03.979Z,20.80
2018-08-09T20:53:33.210Z,20.80
2018-08-09T20:56:02.309Z,20.90
2018-08-09T20:58:31.925Z,20.80
2018-08-09T21:01:01.275Z,20.80
2018-08-09T21:03:30.821Z,20.70
2018-08-09T21:06:00.287Z,20.60
2018-08-09T21:08:29.505Z,20.60
2018-08-09T21:10:58.577Z,20.50
2018-08-09T21:13:27.629Z,20.40
2018-08-09T21:15:56.869Z,20.00
2018-08-09T21:18:25.984Z,19.80
2018-08-09T21:20:55.116Z,19.70
2018-08-09T21:23:24.944Z,19.50
2018-08-09T21:38:53.962Z,19.30
2018-08-09T21:41:23.130Z,19.20
2018-08-09T21:43:52.456Z,18.60
2018-08-09T21:46:21.678Z,18.60
2018-08-09T21:48:51.023Z,18.60
2018-08-09T21:51:20.267Z,18.70
2018-08-09T21:53:49.779Z,18.70
2018-08-09T21:56:19.355Z,18.80
2018-08-09T21:58:50.447Z,18.80
2018-08-09T22:01:19.917Z,18.80
2018-08-09T22:03:49.141Z,18.80
2018-08-09T22:06:23.977Z,18.80
2018-08-09T22:08:58.679Z,18.90
2018-08-09T22:11:32.943Z,18.80
2018-08-09T22:14:07.543Z,18.80
2018-08-09T22:16:41.999Z,18.90
2018-08-09T22:19:16.411Z,18.80
2018-08-09T22:21:50.807Z,18.80
2018-08-09T22:24:20.237Z,18.70
2018-08-09T22:26:49.969Z,18.50
2018-08-09T22:29:19.189Z,18.40
2018-08-09T22:31:48.414Z,18.30
2018-08-09T22:34:17.741Z,18.20
2018-08-09T22:36:47.098Z,18.10
2018-08-09T22:39:16.797Z,18.10
2018-08-09T22:41:45.940Z,18.10
2018-08-09T22:44:15.197Z,18.00
2018-08-09T22:46:46.007Z,18.00
2018-08-09T22:49:15.066Z,18.00
2018-08-09T22:51:44.478Z,18.00
2018-08-09T22:54:13.831Z,18.10
2018-08-09T22:56:43.227Z,18.00
2018-08-09T22:59:12.402Z,18.10
2018-08-09T23:01:41.884Z,18.10
2018-08-09T23:04:11.070Z,18.20
2018-08-09T23:06:40.018Z,18.20
2018-08-09T23:09:10.549Z,18.30
2018-08-09T23:11:39.727Z,18.30
2018-08-09T23:14:09.061Z,18.40
2018-08-09T23:16:38.357Z,18.40
2018-08-09T23:19:07.483Z,18.40
2018-08-09T23:21:36.644Z,18.40
2018-08-09T23:24:05.789Z,18.40
2018-08-09T23:26:34.853Z,18.30
2018-08-09T23:29:04.118Z,18.40
2018-08-09T23:31:33.201Z,18.30
2018-08-09T23:34:02.448Z,18.30
2018-08-09T23:36:31.738Z,18.20
2018-08-09T23:39:00.735Z,18.00
2018-08-09T23:41:29.949Z,17.80
2018-08-09T23:43:59.017Z,17.60
2018-08-09T23:46:28.134Z,17.50
2018-08-09T23:48:57.208Z,17.40
2018-08-09T23:51:26.209Z,17.40
2018-08-09T23:53:55.253Z,17.40
2018-08-09T23:56:24.389Z,17.40
2018-08-09T23:58:53.479Z,17.30
